Time;durP1;ratioP1;P1;durP2;ratioP2;P2;SDS_P1;SDS_P2;PMS_P1;PMS_P2;Temp;Humidity;BMP_temperature;BMP_pressure;BME280_temperature;BME280_humidity;BME280_pressure;Samples;Min_cycle;Max_cycle;Signal;HPM_P1;HPM_P2
2023/12/02 00:01:55;;;;;;;14.53;9.83;;;-3.00;99.90;;;;;;4970073;28;20582;-53
2023/12/02 00:04:21;;;;;;;15.50;10.30;;;-3.00;99.90;;;;;;4995064;28;20234;-58
2023/12/02 00:06:46;;;;;;;16.70;10.23;;;-3.30;99.90;;;;;;4992935;28;20996;-52
2023/12/02 00:09:12;;;;;;;17.17;10.77;;;-3.40;99.90;;;;;;4972357;28;20826;-62
2023/12/02 00:11:38;;;;;;;18.40;10.53;;;-3.60;99.90;;;;;;4984938;28;20783;-54
2023/12/02 00:14:04;;;;;;;15.70;9.53;;;-3.70;99.90;;;;;;4974498;28;20200;-53
2023/12/02 00:16:29;;;;;;;19.73;9.80;;;-3.60;99.90;;;;;;4989028;28;20203;-54
2023/12/02 00:18:55;;;;;;;15.90;10.40;;;-3.50;99.90;;;;;;4989658;28;20214;-54
2023/12/02 00:21:21;;;;;;;17.80;10.43;;;-3.50;99.90;;;;;;4989538;28;20966;-55
2023/12/02 00:23:46;;;;;;;18.17;10.53;;;-3.70;99.90;;;;;;4973009;28;20543;-53
2023/12/02 00:26:12;;;;;;;14.70;9.00;;;-3.70;99.90;;;;;;4990974;28;20203;-53
2023/12/02 00:28:37;;;;;;;15.87;9.93;;;-3.80;99.90;;;;;;4989603;28;20720;-54
2023/12/02 00:31:04;;;;;;;15.33;9.13;;;-4.10;99.90;;;;;;4974039;28;20719;-54
2023/12/02 00:33:29;;;;;;;13.53;8.30;;;-4.00;99.90;;;;;;4989098;28;20204;-53
2023/12/02 00:35:55;;;;;;;14.83;10.07;;;-4.10;99.90;;;;;;4994702;28;20211;-52
2023/12/02 00:38:21;;;;;;;11.67;8.63;;;-4.30;99.90;;;;;;4993099;28;20314;-54
2023/12/02 00:40:46;;;;;;;13.20;8.80;;;-4.50;99.90;;;;;;4987880;28;20739;-54
2023/12/02 00:43:12;;;;;;;15.87;9.77;;;-4.30;99.90;;;;;;4987978;28;20196;-53
2023/12/02 00:45:37;;;;;;;18.80;11.53;;;-4.20;99.90;;;;;;4988336;28;20204;-53
2023/12/02 00:48:03;;;;;;;14.67;9.70;;;-3.90;99.90;;;;;;4989280;28;20219;-53
2023/12/02 00:50:29;;;;;;;19.77;12.03;;;-4.20;99.90;;;;;;4993863;28;20342;-54
2023/12/02 00:52:54;;;;;;;16.40;10.40;;;-4.30;99.90;;;;;;4985675;28;20213;-54
2023/12/02 00:55:20;;;;;;;12.90;9.07;;;-4.30;99.90;;;;;;4989522;28;20204;-53
2023/12/02 00:57:45;;;;;;;14.80;10.47;;;-4.40;99.90;;;;;;4992492;28;20302;-51
2023/12/02 01:00:11;;;;;;;15.90;10.00;;;-4.60;99.90;;;;;;4992042;28;20200;-52
2023/12/02 01:02:37;;;;;;;17.37;10.93;;;-4.60;99.90;;;;;;4990267;28;20215;-53
2023/12/02 01:05:02;;;;;;;18.20;10.37;;;-4.40;99.90;;;;;;4971030;28;20568;-54
2023/12/02 01:07:28;;;;;;;17.77;10.80;;;-4.20;99.90;;;;;;4986286;28;20240;-52
2023/12/02 01:09:53;;;;;;;17.40;11.60;;;-4.10;99.90;;;;;;4985641;28;20283;-53
2023/12/02 01:12:19;;;;;;;16.60;10.47;;;-4.00;99.90;;;;;;4987615;28;20200;-53
2023/12/02 01:14:44;;;;;;;19.50;13.00;;;-4.00;99.90;;;;;;4989350;28;20728;-54
2023/12/02 01:17:10;;;;;;;19.07;11.23;;;-3.80;99.90;;;;;;4989295;28;20670;-53
2023/12/02 01:19:35;;;;;;;17.70;10.60;;;-4.10;99.90;;;;;;4993214;28;20207;-52
2023/12/02 01:22:01;;;;;;;15.57;10.53;;;-4.10;99.90;;;;;;4987568;28;20807;-52
2023/12/02 01:24:27;;;;;;;16.77;11.80;;;-4.20;99.90;;;;;;4990231;28;20234;-54
2023/12/02 01:26:53;;;;;;;19.63;12.47;;;-4.20;99.90;;;;;;4988100;28;20322;-53
2023/12/02 01:29:18;;;;;;;18.63;11.93;;;-4.10;99.90;;;;;;4990268;28;20610;-53
2023/12/02 01:31:43;;;;;;;15.93;10.13;;;-4.40;99.90;;;;;;4972911;28;20200;-52
2023/12/02 01:34:09;;;;;;;17.23;11.20;;;-4.20;99.90;;;;;;4989190;28;20266;-55
2023/12/02 01:36:34;;;;;;;16.00;11.23;;;-4.00;99.90;;;;;;4968110;28;20187;-55
2023/12/02 01:39:00;;;;;;;17.90;10.67;;;-3.80;99.90;;;;;;4990571;28;20236;-52
2023/12/02 01:41:25;;;;;;;17.23;11.20;;;-3.60;99.90;;;;;;4987655;28;20215;-52
2023/12/02 01:43:51;;;;;;;17.93;10.70;;;-3.50;99.90;;;;;;4989651;28;20203;-52
2023/12/02 01:46:17;;;;;;;15.97;10.27;;;-3.50;99.90;;;;;;4984368;28;20270;-53
2023/12/02 01:48:43;;;;;;;17.30;10.90;;;-3.60;99.90;;;;;;4988156;28;20937;-52
2023/12/02 01:51:09;;;;;;;14.30;9.73;;;-3.40;99.90;;;;;;4985814;28;20263;-52
2023/12/02 01:53:35;;;;;;;15.93;10.20;;;-3.70;99.90;;;;;;4973323;28;20292;-56
2023/12/02 01:56:00;;;;;;;14.77;10.20;;;-4.40;99.90;;;;;;4972811;28;20235;-53
2023/12/02 01:58:26;;;;;;;17.13;9.90;;;-4.40;99.90;;;;;;4968408;28;20632;-53
2023/12/02 02:00:52;;;;;;;15.47;10.17;;;-4.80;99.90;;;;;;4986903;28;20207;-53
2023/12/02 02:03:17;;;;;;;14.60;9.30;;;-4.50;99.90;;;;;;4972502;28;20196;-53
2023/12/02 02:05:46;;;;;;;14.63;9.63;;;-4.60;99.90;;;;;;4986805;28;20224;-53
2023/12/02 02:08:12;;;;;;;14.60;9.67;;;-4.50;99.90;;;;;;4990745;28;20238;-53
2023/12/02 02:10:37;;;;;;;17.97;9.50;;;-4.40;99.90;;;;;;4988782;28;20209;-52
2023/12/02 02:13:02;;;;;;;15.27;9.20;;;-4.20;99.90;;;;;;4988606;28;20204;-51
2023/12/02 02:15:28;;;;;;;16.97;10.67;;;-3.90;99.90;;;;;;4988716;28;20203;-52
2023/12/02 02:17:53;;;;;;;12.93;8.77;;;-3.70;99.90;;;;;;4974587;28;20647;-51
2023/12/02 02:20:20;;;;;;;15.80;9.43;;;-3.80;99.90;;;;;;4990104;28;20220;-53
2023/12/02 02:22:45;;;;;;;15.90;9.67;;;-3.80;99.90;;;;;;4987874;28;20204;-52
2023/12/02 02:25:11;;;;;;;14.57;8.47;;;-3.80;99.90;;;;;;4990991;28;20208;-53
2023/12/02 02:27:36;;;;;;;14.67;8.97;;;-3.90;99.90;;;;;;4990635;28;20207;-53
2023/12/02 02:30:02;;;;;;;12.90;8.73;;;-4.10;99.90;;;;;;4989904;28;20254;-52
2023/12/02 02:32:27;;;;;;;13.23;8.10;;;-3.90;99.90;;;;;;4989785;28;20219;-53
2023/12/02 02:34:53;;;;;;;11.53;8.23;;;-4.00;99.90;;;;;;4990524;28;20192;-53
2023/12/02 02:37:18;;;;;;;14.30;8.83;;;-4.10;99.90;;;;;;4992326;28;20677;-53
2023/12/02 02:39:44;;;;;;;13.27;8.73;;;-4.30;99.90;;;;;;4982906;28;20197;-52
2023/12/02 02:42:11;;;;;;;16.87;9.37;;;-4.10;99.90;;;;;;4986414;28;20657;-52
2023/12/02 02:44:36;;;;;;;16.10;9.43;;;-3.80;99.90;;;;;;4987604;28;20260;-53
2023/12/02 02:47:02;;;;;;;14.87;8.60;;;-3.70;99.90;;;;;;4986986;28;20877;-53
2023/12/02 02:49:28;;;;;;;15.13;9.23;;;-4.10;99.90;;;;;;4990987;28;20217;-53
2023/12/02 02:51:54;;;;;;;14.30;9.53;;;-3.90;99.90;;;;;;4988469;28;20204;-52
2023/12/02 02:54:20;;;;;;;19.00;10.67;;;-3.80;99.90;;;;;;4989138;28;20280;-52
2023/12/02 02:56:45;;;;;;;15.73;10.03;;;-4.20;99.90;;;;;;4987144;28;20207;-53
2023/12/02 02:59:11;;;;;;;19.67;10.23;;;-4.70;99.90;;;;;;4987659;28;20235;-53
2023/12/02 03:01:42;;;;;;;15.67;11.07;;;-4.60;99.90;;;;;;4972634;28;20204;-53
2023/12/02 03:04:08;;;;;;;19.63;10.53;;;-4.50;99.90;;;;;;4986902;28;21065;-53
2023/12/02 03:06:34;;;;;;;15.47;9.90;;;-4.70;99.90;;;;;;4969770;28;20208;-53
2023/12/02 03:09:00;;;;;;;20.43;11.07;;;-4.90;99.90;;;;;;4991627;28;20227;-52
2023/12/02 03:11:25;;;;;;;15.67;9.97;;;-4.70;99.90;;;;;;4993509;28;20216;-52
2023/12/02 03:13:51;;;;;;;18.00;10.30;;;-4.40;99.90;;;;;;4994061;28;20374;-53
2023/12/02 03:16:16;;;;;;;19.30;11.03;;;-4.30;99.90;;;;;;4989788;28;20224;-53
2023/12/02 03:18:42;;;;;;;16.33;9.63;;;-4.30;99.90;;;;;;4990518;28;20353;-57
2023/12/02 03:21:08;;;;;;;13.20;8.43;;;-4.20;99.90;;;;;;4983318;28;20596;-53
2023/12/02 03:23:34;;;;;;;17.00;9.60;;;-4.00;99.90;;;;;;4976701;28;20211;-53
2023/12/02 03:26:00;;;;;;;16.27;9.47;;;-3.70;99.90;;;;;;4989308;28;20197;-53
2023/12/02 03:28:25;;;;;;;16.70;9.80;;;-3.60;99.90;;;;;;4972853;28;20248;-52
2023/12/02 03:30:51;;;;;;;18.80;9.63;;;-3.40;99.90;;;;;;4974190;28;20219;-53
2023/12/02 03:33:16;;;;;;;18.20;9.57;;;-3.50;99.90;;;;;;4990845;28;20192;-53
2023/12/02 03:35:42;;;;;;;17.60;10.47;;;-3.50;99.90;;;;;;4991265;28;20207;-53
2023/12/02 03:38:07;;;;;;;17.73;11.43;;;-3.70;99.90;;;;;;4991215;28;20224;-53
2023/12/02 03:40:33;;;;;;;19.40;10.97;;;-4.40;99.90;;;;;;4990086;28;20205;-53
2023/12/02 03:42:59;;;;;;;16.67;9.50;;;-4.60;99.90;;;;;;4986556;28;20201;-54
2023/12/02 03:45:26;;;;;;;18.20;10.13;;;-4.50;99.90;;;;;;4992205;28;20196;-54
2023/12/02 03:47:51;;;;;;;18.57;10.80;;;-4.20;99.90;;;;;;4990032;28;20673;-53
2023/12/02 03:50:18;;;;;;;20.50;11.63;;;-3.90;99.90;;;;;;4993441;28;20207;-54
2023/12/02 03:52:44;;;;;;;17.80;11.80;;;-3.90;99.90;;;;;;4989609;28;20195;-54
2023/12/02 03:55:10;;;;;;;19.73;10.57;;;-4.00;99.90;;;;;;4972420;28;20203;-53
2023/12/02 03:57:35;;;;;;;14.80;10.30;;;-4.00;99.90;;;;;;4988128;28;20225;-53
2023/12/02 04:00:10;;;;;;;17.47;10.90;;;-3.90;99.90;;;;;;4971272;28;20200;-54
2023/12/02 04:02:37;;;;;;;18.97;11.07;;;-4.10;99.90;;;;;;4990095;28;20196;-52
2023/12/02 04:05:02;;;;;;;18.77;10.20;;;-4.40;99.90;;;;;;4976064;28;20200;-53
2023/12/02 04:07:28;;;;;;;16.37;10.97;;;-5.00;99.90;;;;;;4986777;28;20236;-52
2023/12/02 04:09:54;;;;;;;15.87;10.17;;;-5.00;99.90;;;;;;4992258;28;20283;-53
2023/12/02 04:12:20;;;;;;;16.87;10.60;;;-5.00;99.90;;;;;;4989053;28;20215;-53
2023/12/02 04:14:45;;;;;;;20.10;10.87;;;-5.00;99.90;;;;;;4991366;28;20891;-53
2023/12/02 04:17:11;;;;;;;21.47;11.03;;;-5.00;99.90;;;;;;4991266;28;20239;-53
2023/12/02 04:19:37;;;;;;;11.87;8.20;;;-5.00;99.90;;;;;;4991482;28;20701;-53
2023/12/02 04:22:03;;;;;;;18.37;9.90;;;-4.90;99.90;;;;;;4989710;28;20262;-53
2023/12/02 04:24:28;;;;;;;15.17;10.00;;;-5.30;99.90;;;;;;4992133;28;20206;-53
2023/12/02 04:26:54;;;;;;;15.40;9.33;;;-5.30;99.90;;;;;;4975682;28;20212;-53
2023/12/02 04:29:19;;;;;;;15.77;9.10;;;-5.30;99.90;;;;;;4971255;28;20205;-53
2023/12/02 04:31:44;;;;;;;14.37;8.47;;;-5.00;99.90;;;;;;4968045;28;20205;-53
2023/12/02 04:34:10;;;;;;;13.13;8.50;;;-5.00;99.90;;;;;;4970615;28;20201;-53
2023/12/02 04:36:36;;;;;;;12.70;8.13;;;-4.70;99.90;;;;;;4994278;28;20569;-53
2023/12/02 04:39:03;;;;;;;13.77;8.93;;;-4.60;99.90;;;;;;4970947;28;20220;-53
2023/12/02 04:41:29;;;;;;;16.17;9.53;;;-5.20;99.90;;;;;;4989919;28;20662;-53
2023/12/02 04:43:55;;;;;;;17.33;9.77;;;-5.10;99.90;;;;;;4988750;28;20204;-53
2023/12/02 04:46:20;;;;;;;17.67;8.40;;;-5.20;99.90;;;;;;4985268;28;20204;-52
2023/12/02 04:48:46;;;;;;;11.33;7.37;;;-5.50;99.90;;;;;;4992329;28;20242;-52
2023/12/02 04:51:11;;;;;;;11.83;7.13;;;-5.50;99.90;;;;;;4991111;28;20210;-53
2023/12/02 04:53:37;;;;;;;13.63;8.37;;;-5.50;99.90;;;;;;4988486;28;20920;-52
2023/12/02 04:56:02;;;;;;;12.50;8.43;;;-5.40;99.90;;;;;;4990975;28;20793;-52
2023/12/02 04:58:28;;;;;;;12.27;7.53;;;-5.20;99.90;;;;;;4989855;28;20662;-52
2023/12/02 05:00:53;;;;;;;10.93;6.10;;;-5.60;99.90;;;;;;4992013;28;20199;-52
2023/12/02 05:03:19;;;;;;;11.53;6.90;;;-5.60;99.90;;;;;;4974334;28;20368;-52
2023/12/02 05:05:44;;;;;;;11.03;7.53;;;-5.60;99.90;;;;;;4991540;28;20544;-53
2023/12/02 05:08:10;;;;;;;10.93;6.73;;;-5.70;99.90;;;;;;4972536;28;20323;-52
2023/12/02 05:10:35;;;;;;;10.80;6.37;;;-5.80;99.90;;;;;;4989814;28;20212;-52
2023/12/02 05:13:01;;;;;;;11.23;6.40;;;-6.10;99.90;;;;;;4987864;28;20307;-52
2023/12/02 05:15:27;;;;;;;12.60;7.07;;;-5.70;99.90;;;;;;4990217;28;20203;-52
2023/12/02 05:17:52;;;;;;;10.07;6.20;;;-5.60;99.90;;;;;;4987797;28;20219;-53
2023/12/02 05:20:19;;;;;;;11.03;6.53;;;-5.10;99.90;;;;;;4991668;28;20572;-53
2023/12/02 05:22:44;;;;;;;10.53;6.07;;;-5.30;99.90;;;;;;4990865;28;20749;-52
2023/12/02 05:25:10;;;;;;;10.67;5.63;;;-5.70;99.90;;;;;;4985731;28;20209;-53
2023/12/02 05:27:36;;;;;;;9.00;6.23;;;-5.90;99.90;;;;;;4986665;28;20204;-53
2023/12/02 05:30:02;;;;;;;11.83;6.60;;;-6.00;99.90;;;;;;4987306;28;21070;-52
2023/12/02 05:32:28;;;;;;;9.93;6.43;;;-6.00;99.90;;;;;;4972245;28;20200;-53
2023/12/02 05:34:53;;;;;;;10.97;7.43;;;-5.90;99.90;;;;;;4988857;28;20204;-53
2023/12/02 05:37:18;;;;;;;11.80;7.10;;;-5.80;99.90;;;;;;4989016;28;20258;-53
2023/12/02 05:39:44;;;;;;;12.27;6.47;;;-5.70;99.90;;;;;;4987371;28;20764;-52
2023/12/02 05:42:09;;;;;;;11.20;6.23;;;-5.60;99.90;;;;;;4988685;28;20203;-53
2023/12/02 05:44:35;;;;;;;10.07;6.70;;;-5.30;99.90;;;;;;4990277;28;20204;-54
2023/12/02 05:47:01;;;;;;;9.27;5.90;;;-5.10;99.90;;;;;;4984099;28;20208;-54
2023/12/02 05:49:26;;;;;;;10.87;7.07;;;-4.90;99.90;;;;;;4991506;28;20608;-54
2023/12/02 05:51:52;;;;;;;11.73;6.87;;;-4.80;99.90;;;;;;4987435;28;20206;-57
2023/12/02 05:54:17;;;;;;;9.53;6.80;;;-4.60;99.90;;;;;;4992303;28;20206;-53
2023/12/02 05:56:43;;;;;;;9.33;6.17;;;-4.40;99.90;;;;;;4989071;28;20678;-53
2023/12/02 05:59:08;;;;;;;11.10;7.50;;;-4.10;99.90;;;;;;4990158;28;20712;-52
2023/12/02 06:01:34;;;;;;;11.97;6.77;;;-4.10;99.90;;;;;;4985802;28;20279;-53
2023/12/02 06:04:00;;;;;;;9.60;6.53;;;-4.00;99.90;;;;;;4988858;28;20262;-53
2023/12/02 06:06:25;;;;;;;11.77;6.87;;;-4.10;99.90;;;;;;4988901;28;20204;-52
2023/12/02 06:08:51;;;;;;;9.87;7.37;;;-4.40;99.90;;;;;;4988967;28;20406;-52
2023/12/02 06:11:16;;;;;;;9.60;7.50;;;-4.30;99.90;;;;;;4991395;28;20207;-52
2023/12/02 06:13:42;;;;;;;10.43;6.57;;;-4.40;99.90;;;;;;4969118;28;20195;-56
2023/12/02 06:16:08;;;;;;;10.70;6.80;;;-4.00;99.90;;;;;;4968537;28;20297;-52
2023/12/02 06:18:33;;;;;;;9.73;6.50;;;-4.00;99.90;;;;;;4989397;28;20247;-52
2023/12/02 06:20:59;;;;;;;11.37;7.27;;;-4.40;99.90;;;;;;4968925;28;20566;-53
2023/12/02 06:23:24;;;;;;;12.50;7.43;;;-4.40;99.90;;;;;;4986691;28;20634;-53
2023/12/02 06:25:50;;;;;;;11.27;6.63;;;-4.10;99.90;;;;;;4990341;28;20207;-52
2023/12/02 06:28:15;;;;;;;11.07;6.63;;;-4.20;99.90;;;;;;4988652;28;20196;-52
2023/12/02 06:30:41;;;;;;;11.40;7.13;;;-4.30;99.90;;;;;;4988770;28;20215;-52
2023/12/02 06:33:07;;;;;;;10.97;6.33;;;-3.90;99.90;;;;;;4991023;28;20196;-52
2023/12/02 06:35:32;;;;;;;9.93;6.93;;;-3.60;99.90;;;;;;4980019;28;20193;-53
2023/12/02 06:37:58;;;;;;;11.50;7.30;;;-3.60;99.90;;;;;;4982154;28;20230;-53
2023/12/02 06:40:23;;;;;;;12.47;7.40;;;-3.70;99.90;;;;;;4972995;28;20196;-54
2023/12/02 06:42:49;;;;;;;9.60;6.07;;;-3.90;99.90;;;;;;4994839;28;20287;-54
2023/12/02 06:45:14;;;;;;;10.50;6.13;;;-4.10;99.90;;;;;;4993236;28;20184;-52
2023/12/02 06:47:40;;;;;;;11.23;7.63;;;-3.90;99.90;;;;;;4994023;28;20773;-51
2023/12/02 06:50:07;;;;;;;11.17;7.10;;;-3.70;99.90;;;;;;4995133;28;20836;-52
2023/12/02 06:52:32;;;;;;;10.33;7.03;;;-3.40;99.90;;;;;;4994919;28;20250;-53
2023/12/02 06:54:58;;;;;;;11.00;7.00;;;-3.30;99.90;;;;;;4992148;28;20201;-52
2023/12/02 06:57:23;;;;;;;10.67;6.90;;;-3.10;99.90;;;;;;4992998;28;20670;-53
2023/12/02 06:59:51;;;;;;;9.47;6.10;;;-3.10;99.90;;;;;;4989316;28;20315;-53
2023/12/02 07:02:16;;;;;;;11.83;6.13;;;-3.20;99.90;;;;;;4992821;28;20200;-52
2023/12/02 07:04:42;;;;;;;10.67;6.13;;;-3.50;99.90;;;;;;4976108;28;20200;-53
2023/12/02 07:07:07;;;;;;;9.10;5.10;;;-3.50;99.90;;;;;;4993968;28;20232;-53
2023/12/02 07:09:33;;;;;;;13.30;6.23;;;-3.70;99.90;;;;;;4994352;28;20208;-53
2023/12/02 07:11:58;;;;;;;10.30;5.80;;;-3.90;99.90;;;;;;4975204;28;20215;-52
2023/12/02 07:14:24;;;;;;;11.13;6.73;;;-4.30;99.90;;;;;;4988261;28;20204;-53
2023/12/02 07:16:49;;;;;;;8.07;5.97;;;-4.40;99.90;;;;;;4986203;28;20201;-53
2023/12/02 07:19:15;;;;;;;10.03;6.23;;;-4.20;99.90;;;;;;4992697;28;20225;-51
2023/12/02 07:21:40;;;;;;;10.77;6.73;;;-4.40;99.90;;;;;;4994110;28;20223;-52
2023/12/02 07:24:06;;;;;;;9.60;6.50;;;-4.50;99.90;;;;;;4989748;28;20232;-52
2023/12/02 07:26:31;;;;;;;9.77;6.50;;;-4.40;99.90;;;;;;4996042;28;20744;-53
2023/12/02 07:28:57;;;;;;;10.93;7.30;;;-4.20;99.90;;;;;;4975458;28;20192;-52
2023/12/02 07:31:22;;;;;;;12.33;7.40;;;-4.00;99.90;;;;;;4993126;28;20681;-52
2023/12/02 07:33:48;;;;;;;13.43;6.77;;;-4.20;99.90;;;;;;4992597;28;20269;-52
2023/12/02 07:36:13;;;;;;;11.50;6.90;;;-4.80;99.90;;;;;;4989028;28;20210;-53
2023/12/02 07:38:40;;;;;;;12.93;7.33;;;-4.80;99.90;;;;;;4987567;28;20315;-53
2023/12/02 07:41:10;;;;;;;19.50;7.83;;;-5.00;99.90;;;;;;4993680;28;20235;-53
2023/12/02 07:43:35;;;;;;;12.57;6.83;;;-5.10;99.90;;;;;;4992614;28;20203;-54
2023/12/02 07:46:01;;;;;;;13.70;7.73;;;-4.90;99.90;;;;;;4985498;28;20200;-53
2023/12/02 07:48:27;;;;;;;14.47;8.53;;;-4.80;99.90;;;;;;4972158;28;20658;-53
2023/12/02 07:50:52;;;;;;;16.07;7.27;;;-4.80;99.90;;;;;;4986921;28;20577;-53
2023/12/02 07:53:18;;;;;;;13.77;8.87;;;-4.80;99.90;;;;;;4985854;28;20205;-52
2023/12/02 07:55:44;;;;;;;16.60;8.03;;;-4.90;99.90;;;;;;4989493;28;20619;-65
2023/12/02 07:58:09;;;;;;;15.47;8.97;;;-4.90;99.90;;;;;;4977561;28;20216;-53
2023/12/02 08:00:35;;;;;;;11.97;8.17;;;-4.90;99.90;;;;;;4991041;28;20788;-55
2023/12/02 08:03:01;;;;;;;15.80;9.43;;;-4.70;99.90;;;;;;4991241;28;20208;-63
2023/12/02 08:05:26;;;;;;;18.70;9.90;;;-4.40;99.90;;;;;;4988873;28;20196;-54
2023/12/02 08:07:52;;;;;;;13.50;8.23;;;-4.20;99.90;;;;;;4973991;28;20304;-54
2023/12/02 08:10:18;;;;;;;15.60;8.93;;;-4.20;99.90;;;;;;4991642;28;20188;-60
2023/12/02 08:12:43;;;;;;;13.37;9.57;;;-4.20;99.90;;;;;;4970322;28;20192;-54
2023/12/02 08:15:09;;;;;;;12.77;8.57;;;-4.30;99.90;;;;;;4990783;28;20706;-57
2023/12/02 08:17:35;;;;;;;20.53;10.47;;;-4.30;99.90;;;;;;4989272;28;20196;-55
2023/12/02 08:20:05;;;;;;;16.10;9.13;;;-4.40;99.90;;;;;;4972992;28;20221;-54
2023/12/02 08:22:31;;;;;;;16.57;8.27;;;-4.40;99.90;;;;;;4989451;28;20203;-54
2023/12/02 08:24:56;;;;;;;18.07;9.83;;;-4.20;99.90;;;;;;4989654;28;20208;-66
2023/12/02 08:27:22;;;;;;;13.67;8.33;;;-4.20;99.90;;;;;;4974073;28;20638;-53
2023/12/02 08:29:48;;;;;;;16.20;9.07;;;-4.20;99.90;;;;;;4989220;28;20204;-53
2023/12/02 08:32:13;;;;;;;14.67;8.90;;;-4.20;99.90;;;;;;4972556;28;20302;-61
2023/12/02 08:34:39;;;;;;;17.00;8.97;;;-4.20;99.90;;;;;;4989427;28;20804;-51
2023/12/02 08:37:06;;;;;;;15.43;8.20;;;-4.50;99.90;;;;;;4973123;28;20210;-62
2023/12/02 08:39:31;;;;;;;17.90;9.30;;;-4.50;99.90;;;;;;4975002;28;20227;-54
2023/12/02 08:41:57;;;;;;;15.17;9.57;;;-4.10;99.90;;;;;;4989306;28;20857;-53
2023/12/02 08:44:23;;;;;;;18.83;9.87;;;-3.90;99.90;;;;;;4971221;28;20700;-54
2023/12/02 08:46:50;;;;;;;19.10;9.70;;;-3.70;99.90;;;;;;4988772;28;20204;-53
2023/12/02 08:49:15;;;;;;;15.43;9.00;;;-3.90;99.90;;;;;;4990704;28;20193;-53
2023/12/02 08:51:41;;;;;;;18.77;8.77;;;-3.50;99.90;;;;;;4968958;28;20506;-53
2023/12/02 08:54:06;;;;;;;18.30;10.57;;;-3.40;99.90;;;;;;4987766;28;20201;-55
2023/12/02 08:56:32;;;;;;;14.93;8.60;;;-3.30;99.90;;;;;;4987325;28;20197;-52
2023/12/02 08:58:59;;;;;;;15.17;7.90;;;-3.30;99.90;;;;;;4990285;28;21047;-54
2023/12/02 09:01:25;;;;;;;13.67;8.20;;;-3.60;99.90;;;;;;4986411;28;20198;-54
2023/12/02 09:03:50;;;;;;;14.47;7.90;;;-3.70;99.90;;;;;;4986603;28;20882;-64
2023/12/02 09:06:16;;;;;;;14.80;7.77;;;-3.60;99.90;;;;;;4988944;28;20201;-67
2023/12/02 09:08:41;;;;;;;15.90;9.37;;;-3.40;99.90;;;;;;4973409;28;20292;-62
2023/12/02 09:11:07;;;;;;;14.90;7.93;;;-3.10;99.90;;;;;;4991284;28;20205;-66
2023/12/02 09:13:40;;;;;;;16.50;9.03;;;-3.20;99.90;;;;;;4991955;28;20207;-66
2023/12/02 09:16:28;;;;;;;14.87;10.13;;;-3.00;99.90;;;;;;4971068;28;20207;-54
2023/12/02 09:18:53;;;;;;;18.77;9.53;;;-2.80;99.90;;;;;;4987653;28;20212;-54
2023/12/02 09:21:22;;;;;;;15.03;9.00;;;-2.60;99.90;;;;;;4990059;28;20288;-54
2023/12/02 09:23:51;;;;;;;17.50;9.43;;;-2.80;99.90;;;;;;4972359;28;20843;-53
2023/12/02 09:26:28;;;;;;;16.57;8.63;;;-3.00;99.90;;;;;;4979814;28;20563;-54
2023/12/02 09:28:55;;;;;;;17.00;9.93;;;-2.90;99.90;;;;;;4987955;28;20197;-53
2023/12/02 09:31:20;;;;;;;17.23;9.87;;;-2.80;99.90;;;;;;4979374;28;20229;-54
2023/12/02 09:33:54;;;;;;;18.83;9.47;;;-2.80;99.90;;;;;;4968592;28;20272;-55
2023/12/02 09:36:39;;;;;;;13.43;8.70;;;-2.70;99.90;;;;;;4986929;28;20201;-53
2023/12/02 09:39:16;;;;;;;16.40;9.17;;;-2.70;99.90;;;;;;4987673;28;20228;-54
2023/12/02 09:41:50;;;;;;;12.40;8.53;;;-2.70;99.90;;;;;;4970274;28;20355;-53
2023/12/02 09:44:18;;;;;;;15.47;9.07;;;-2.70;99.90;;;;;;4985316;28;20201;-54
2023/12/02 09:47:17;;;;;;;19.33;10.87;;;-2.70;99.90;;;;;;4985423;28;20289;-54
2023/12/02 09:50:06;;;;;;;17.00;10.27;;;-2.80;99.90;;;;;;4936953;28;20213;-55
2023/12/02 09:53:11;;;;;;;15.57;9.80;;;-2.80;99.90;;;;;;4984497;28;20196;-53
2023/12/02 09:55:43;;;;;;;17.63;10.10;;;-2.80;99.90;;;;;;4984779;28;20198;-52
2023/12/02 09:58:21;;;;;;;20.50;10.00;;;-2.70;99.90;;;;;;4984379;28;20529;-53
2023/12/02 10:01:17;;;;;;;15.37;8.60;;;-2.60;99.90;;;;;;4983753;28;20208;-55
2023/12/02 10:03:45;;;;;;;17.43;10.33;;;-2.60;99.90;;;;;;4978283;28;20232;-53
2023/12/02 10:06:25;;;;;;;14.03;8.73;;;-2.40;99.90;;;;;;4967326;28;20352;-54
2023/12/02 10:09:21;;;;;;;14.33;9.03;;;-2.30;99.90;;;;;;4984172;28;20228;-63
2023/12/02 10:12:25;;;;;;;14.67;8.30;;;-2.50;99.90;;;;;;4984877;28;20237;-63
2023/12/02 10:15:01;;;;;;;11.90;7.90;;;-2.70;99.90;;;;;;4986525;28;20208;-54
2023/12/02 10:17:30;;;;;;;14.43;8.77;;;-2.60;99.90;;;;;;4983110;28;20619;-66
2023/12/02 10:20:00;;;;;;;16.17;9.67;;;-2.60;99.90;;;;;;4988732;28;20221;-54
2023/12/02 10:22:31;;;;;;;13.33;8.37;;;-2.40;99.90;;;;;;4985051;28;20206;-54
2023/12/02 10:25:07;;;;;;;14.23;9.33;;;-2.30;99.90;;;;;;4967189;28;20197;-66
2023/12/02 10:27:38;;;;;;;16.87;9.00;;;-2.40;99.90;;;;;;4967302;28;20208;-67
2023/12/02 10:30:12;;;;;;;14.27;8.30;;;-2.50;99.90;;;;;;4988659;28;20705;-64
2023/12/02 10:32:50;;;;;;;15.10;9.77;;;-2.70;99.90;;;;;;4965453;28;20200;-65
2023/12/02 10:35:23;;;;;;;14.00;8.50;;;-2.90;99.90;;;;;;4984490;28;20200;-54
2023/12/02 10:37:57;;;;;;;14.73;8.17;;;-2.90;99.90;;;;;;4985799;28;20306;-53
2023/12/02 10:40:26;;;;;;;12.87;8.10;;;-3.10;99.90;;;;;;4986676;28;20284;-53
2023/12/02 10:43:05;;;;;;;13.67;7.80;;;-3.10;99.90;;;;;;4988648;28;20218;-53
2023/12/02 10:45:33;;;;;;;10.37;6.13;;;-3.20;99.90;;;;;;4985950;28;20201;-55
2023/12/02 10:47:59;;;;;;;11.00;7.03;;;-3.10;99.90;;;;;;4988858;28;20196;-54
2023/12/02 10:50:27;;;;;;;11.07;6.83;;;-3.10;99.90;;;;;;4988090;28;20205;-54
2023/12/02 10:53:03;;;;;;;11.17;7.27;;;-2.90;99.90;;;;;;4985016;28;21154;-53
2023/12/02 10:55:31;;;;;;;11.40;7.13;;;-3.10;99.90;;;;;;4989303;28;20199;-55
2023/12/02 10:57:59;;;;;;;13.07;7.83;;;-3.30;99.90;;;;;;5061405;23;20759;-53
2023/12/02 11:00:29;;;;;;;10.43;6.67;;;-3.10;99.90;;;;;;5029034;28;20213;-54
2023/12/02 11:03:16;;;;;;;10.90;6.63;;;-3.00;99.90;;;;;;5030042;28;20195;-53
2023/12/02 11:05:48;;;;;;;12.47;7.67;;;-3.10;99.90;;;;;;5007269;28;20712;-55
2023/12/02 11:08:36;;;;;;;9.13;5.87;;;-3.30;99.90;;;;;;5026614;28;20489;-56
2023/12/02 11:11:07;;;;;;;14.10;6.83;;;-3.70;99.90;;;;;;5025430;28;20289;-54
2023/12/02 11:13:34;;;;;;;10.83;6.67;;;-3.80;99.90;;;;;;5022414;28;20583;-55
2023/12/02 11:16:20;;;;;;;9.27;6.57;;;-3.60;99.90;;;;;;5024821;28;20210;-54
2023/12/02 11:19:04;;;;;;;10.07;7.27;;;-3.80;99.90;;;;;;5001333;28;20305;-54
2023/12/02 11:22:00;;;;;;;10.87;6.40;;;-3.80;99.90;;;;;;5021807;28;20200;-54
2023/12/02 11:24:39;;;;;;;12.03;7.37;;;-3.90;99.90;;;;;;5019572;28;20235;-55
2023/12/02 11:27:24;;;;;;;13.03;7.23;;;-3.70;99.90;;;;;;5007209;28;20257;-53
2023/12/02 11:30:05;;;;;;;10.43;6.33;;;-3.60;99.90;;;;;;5030101;28;20303;-56
2023/12/02 11:32:54;;;;;;;10.90;7.30;;;-3.60;99.90;;;;;;5031182;28;20201;-57
2023/12/02 11:35:30;;;;;;;14.30;7.97;;;-3.80;99.90;;;;;;5028425;28;20206;-54
2023/12/02 11:38:04;;;;;;;11.67;7.17;;;-4.00;99.90;;;;;;5012440;28;20215;-58
2023/12/02 11:40:57;;;;;;;12.20;7.60;;;-4.00;99.90;;;;;;5028154;28;20218;-53
2023/12/02 11:43:41;;;;;;;10.57;6.83;;;-3.90;99.90;;;;;;5027909;28;20210;-53
2023/12/02 11:46:14;;;;;;;13.30;7.97;;;-3.70;99.90;;;;;;5022425;28;20220;-53
2023/12/02 11:48:56;;;;;;;13.53;7.90;;;-3.70;99.90;;;;;;5025975;28;20207;-54
2023/12/02 11:51:43;;;;;;;14.87;8.13;;;-3.90;99.90;;;;;;5009289;28;20195;-54
2023/12/02 11:54:31;;;;;;;13.63;8.50;;;-3.90;99.90;;;;;;5023549;28;20277;-53
2023/12/02 11:57:19;;;;;;;13.50;7.43;;;-3.80;99.90;;;;;;5031751;28;20309;-63
2023/12/02 11:59:54;;;;;;;16.30;9.70;;;-3.50;99.90;;;;;;5023533;28;20297;-52
2023/12/02 12:02:52;;;;;;;16.30;7.97;;;-3.60;99.90;;;;;;5030648;28;20199;-54
2023/12/02 12:05:34;;;;;;;17.13;9.27;;;-3.60;99.90;;;;;;5023743;28;20248;-54
2023/12/02 12:08:20;;;;;;;14.37;9.07;;;-3.80;99.90;;;;;;5025336;28;20199;-52
2023/12/02 12:10:48;;;;;;;15.80;9.13;;;-3.70;99.90;;;;;;5021379;28;20199;-54
2023/12/02 12:13:18;;;;;;;18.83;10.83;;;-3.70;99.90;;;;;;5027259;28;20207;-55
2023/12/02 12:15:44;;;;;;;20.20;10.70;;;-3.60;99.90;;;;;;5024684;28;20198;-55
2023/12/02 12:18:10;;;;;;;17.87;9.60;;;-3.60;99.90;;;;;;5008141;28;20287;-55
2023/12/02 12:20:36;;;;;;;18.43;10.27;;;-3.60;99.90;;;;;;5024881;28;20216;-53
2023/12/02 12:23:02;;;;;;;23.37;10.67;;;-3.60;99.90;;;;;;5022753;28;20672;-54
2023/12/02 12:25:32;;;;;;;19.40;11.57;;;-3.30;99.90;;;;;;5028896;28;20198;-54
2023/12/02 12:28:02;;;;;;;18.07;10.17;;;-3.20;99.90;;;;;;5026935;28;20242;-54
2023/12/02 12:30:44;;;;;;;14.50;10.50;;;-3.10;99.90;;;;;;5027199;28;20551;-54
2023/12/02 12:33:18;;;;;;;17.97;10.63;;;-2.90;99.90;;;;;;5030008;28;20280;-53
2023/12/02 12:35:44;;;;;;;16.73;11.07;;;-2.90;99.90;;;;;;5026028;28;20699;-54
2023/12/02 12:38:10;;;;;;;18.33;10.90;;;-3.00;99.90;;;;;;5025692;28;20707;-53
2023/12/02 12:40:37;;;;;;;20.60;11.10;;;-3.20;99.90;;;;;;5005882;28;20211;-54
2023/12/02 12:43:03;;;;;;;19.97;12.53;;;-2.90;99.90;;;;;;5026215;28;20496;-53